Weather History for KCXP - March, 2014

Change the Weather History Date:

Sunday, March 23, 2014

  Actual Average Record
Temperature  
Mean Temperature 45 °F -  
Max Temperature 64 °F 61 °F - (-1)
Min Temperature 26 °F 31 °F - (-1)
Degree Days  
Heating Degree Days 20    
Moisture  
Dew Point 13 °F    
Average Humidity 30    
Maximum Humidity 64    
Minimum Humidity 12    
Precipitation  
Precipitation 0.00 in - - ()
Sea Level Pressure  
Sea Level Pressure 30.19 in    
Wind  
Wind Speed 2 mph (NW)    
Max Wind Speed 13 mph    
Max Gust Speed 16 mph    
Visibility 10 miles    
Events      
Averages and records for this station are not official NWS values.
T = Trace of Precipitation, MM = Missing Value Source: NWS Daily Summary

Daily Weather History Graph

Daily Weather History Graph

Search for Another Location

Airport or City:

Trip Planner

Search our weather history database for the weather conditions in past years. The results will help you decide how hot, cold, wet, or windy it might be!

Date:

Astronomy

Mar. 23, 2014 Rise Set
Actual Time 6:57 AM PDT 7:13 PM PDT
Civil Twilight 6:30 AM PDT 7:40 PM PDT
Nautical Twilight 5:59 AM PDT 8:12 PM PDT
Astronomical Twilight 5:27 AM PDT 8:44 PM PDT
Moon 1:33 AM PDT (3/23) 11:45 AM PDT (3/23)
Length of Visible Light 13h 10m
Length of Day
12h 16m
Waning Gibbous, 53% of the Moon is Illuminated
Mar 23
Waning Gibbous
Mar 23
Last Quarter
Mar 30
New
Apr 7
First Quarter
Apr 15
Full

Hourly Weather History & Observations

Time (PDT) Temp. Windchill Dew Point Humidity Pressure Visibility Wind Dir Wind Speed Gust Speed Precip Events Conditions
12:15 AM 37.4 °F 34.9 °F 10.4 °F 33% 30.17 in 10.0 mi NW 3.5 mph - N/A   Clear
12:35 AM 37.4 °F - 10.4 °F 33% 30.18 in 10.0 mi Calm Calm - N/A   Clear
12:55 AM 35.6 °F 32.8 °F 10.4 °F 35% 30.17 in 10.0 mi NE 3.5 mph - N/A   Clear
1:15 AM 37.4 °F - 10.4 °F 33% 30.18 in 10.0 mi Calm Calm - N/A   Clear
1:35 AM 35.6 °F - 12.2 °F 38% 30.18 in 10.0 mi Calm Calm - N/A   Clear
1:55 AM 35.6 °F - 10.4 °F 35% 30.19 in 10.0 mi Calm Calm - N/A   Clear
2:15 AM 32.0 °F - 14.0 °F 48% 30.18 in 10.0 mi Calm Calm - N/A   Clear
2:35 AM 32.0 °F - 10.4 °F 41% 30.18 in 10.0 mi Calm Calm - N/A   Clear
2:55 AM 32.0 °F - 10.4 °F 41% 30.18 in 10.0 mi Calm Calm - N/A   Clear
3:15 AM 32.0 °F - 10.4 °F 41% 30.17 in 10.0 mi Calm Calm - N/A   Clear
3:35 AM 32.0 °F - 10.4 °F 41% 30.17 in 10.0 mi Calm Calm - N/A   Clear
3:55 AM 32.0 °F - 10.4 °F 41% 30.17 in 10.0 mi Calm Calm - N/A   Clear
4:15 AM 30.2 °F - 10.4 °F 44% 30.17 in 10.0 mi Calm Calm - N/A   Clear
4:35 AM 32.0 °F - 10.4 °F 41% 30.18 in 10.0 mi Calm Calm - N/A   Clear
4:55 AM 28.4 °F - 10.4 °F 47% 30.18 in 10.0 mi Calm Calm - N/A   Clear
5:15 AM 28.4 °F - 10.4 °F 47% 30.18 in 10.0 mi Calm Calm - N/A   Clear
5:35 AM 28.4 °F - 12.2 °F 51% 30.18 in 10.0 mi Calm Calm - N/A   Clear
5:55 AM 30.2 °F - 14.0 °F 51% 30.19 in 10.0 mi Calm Calm - N/A   Clear
6:15 AM 28.4 °F - 14.0 °F 55% 30.19 in 10.0 mi Calm Calm - N/A   Clear
6:35 AM 26.6 °F - 15.8 °F 64% 30.20 in 10.0 mi Calm Calm - N/A   Clear
6:55 AM 26.6 °F - 14.0 °F 59% 30.20 in 10.0 mi Calm Calm - N/A   Clear
7:15 AM 28.4 °F - 14.0 °F 55% 30.21 in 10.0 mi Calm Calm - N/A   Clear
7:35 AM 28.4 °F - 15.8 °F 59% 30.22 in 10.0 mi Calm Calm - N/A   Clear
7:55 AM 32.0 °F - 15.8 °F 51% 30.23 in 10.0 mi Calm Calm - N/A   Clear
8:15 AM 32.0 °F - 17.6 °F 55% 30.23 in 10.0 mi Calm Calm - N/A   Clear
8:35 AM 35.6 °F - 17.6 °F 48% 30.23 in 10.0 mi Calm Calm - N/A   Clear
8:55 AM 35.6 °F - 19.4 °F 52% 30.24 in 10.0 mi Calm Calm - N/A   Clear
9:15 AM 39.2 °F - 19.4 °F 45% 30.24 in 10.0 mi Calm Calm - N/A   Clear
9:35 AM 41.0 °F 39.0 °F 19.4 °F 42% 30.24 in 10.0 mi WSW 3.5 mph - N/A   Clear
9:55 AM 42.8 °F - 19.4 °F 39% 30.24 in 10.0 mi Calm Calm - N/A   Clear
10:15 AM 44.6 °F - 19.4 °F 37% 30.24 in 10.0 mi Calm Calm - N/A   Clear
10:35 AM 48.2 °F - 19.4 °F 32% 30.24 in 10.0 mi Calm Calm - N/A   Clear
10:55 AM 48.2 °F - 21.2 °F 34% 30.24 in 10.0 mi NNW 3.5 mph - N/A   Clear
11:15 AM 50.0 °F - 19.4 °F 30% 30.24 in 10.0 mi WNW 3.5 mph - N/A   Clear
11:35 AM 53.6 °F - 19.4 °F 26% 30.23 in 10.0 mi WNW 3.5 mph - N/A   Clear
11:55 AM 55.4 °F - 19.4 °F 25% 30.23 in 10.0 mi WNW 3.5 mph - N/A   Clear
12:15 PM 57.2 °F - 17.6 °F 21% 30.22 in 10.0 mi West 3.5 mph - N/A   Clear
12:35 PM 57.2 °F - 17.6 °F 21% 30.22 in 10.0 mi SSE 5.8 mph - N/A   Clear
12:55 PM 57.2 °F - 15.8 °F 20% 30.21 in 10.0 mi NNE 3.5 mph - N/A   Clear
1:15 PM 59.0 °F - 14.0 °F 17% 30.20 in 10.0 mi WSW 4.6 mph - N/A   Clear
1:35 PM 60.8 °F - 14.0 °F 16% 30.19 in 10.0 mi NE 4.6 mph - N/A   Clear
1:55 PM 60.8 °F - 10.4 °F 14% 30.18 in 10.0 mi South 6.9 mph - N/A   Clear
2:15 PM 62.6 °F - 10.4 °F 13% 30.18 in 10.0 mi Calm Calm - N/A   Clear
2:35 PM 62.6 °F - 10.4 °F 13% 30.17 in 10.0 mi West 5.8 mph - N/A   Clear
2:55 PM 62.6 °F - 10.4 °F 13% 30.16 in 10.0 mi SSW 4.6 mph - N/A   Clear
3:15 PM 62.6 °F - 12.2 °F 14% 30.16 in 10.0 mi Calm Calm - N/A   Clear
3:35 PM 64.4 °F - 12.2 °F 13% 30.16 in 10.0 mi West 4.6 mph - N/A   Clear
3:55 PM 62.6 °F - 12.2 °F 14% 30.15 in 10.0 mi Calm Calm - N/A   Clear
4:15 PM 64.4 °F - 10.4 °F 12% 30.14 in 10.0 mi West 4.6 mph - N/A   Clear
4:35 PM 64.4 °F - 10.4 °F 12% 30.14 in 10.0 mi SSW 6.9 mph - N/A   Clear
4:55 PM 64.4 °F - 10.4 °F 12% 30.14 in 10.0 mi Calm Calm - N/A   Clear
5:15 PM 64.4 °F - 10.4 °F 12% 30.14 in 10.0 mi SW 5.8 mph - N/A   Clear
5:35 PM 64.4 °F - 12.2 °F 13% 30.14 in 10.0 mi NW 9.2 mph - N/A   Clear
5:55 PM 64.4 °F - 12.2 °F 13% 30.14 in 10.0 mi NW 8.1 mph - N/A   Clear
6:15 PM 62.6 °F - 10.4 °F 13% 30.14 in 10.0 mi Calm Calm - N/A   Clear
6:35 PM 62.6 °F - 14.0 °F 15% 30.14 in 10.0 mi NW 6.9 mph - N/A   Clear
6:55 PM 60.8 °F - 14.0 °F 16% 30.15 in 10.0 mi North 4.6 mph - N/A   Clear
7:15 PM 59.0 °F - 10.4 °F 15% 30.15 in 10.0 mi NNE 8.1 mph - N/A   Clear
7:35 PM 55.4 °F - 17.6 °F 23% 30.16 in 10.0 mi NNW 5.8 mph - N/A   Clear
7:55 PM 57.2 °F - 8.6 °F 14% 30.16 in 10.0 mi NE 12.7 mph 16.1 mph N/A   Clear
8:15 PM 57.2 °F - 8.6 °F 14% 30.17 in 10.0 mi NE 11.5 mph - N/A   Clear
8:35 PM 55.4 °F - 6.8 °F 14% 30.19 in 10.0 mi NE 11.5 mph - N/A   Clear
8:55 PM 55.4 °F - 8.6 °F 15% 30.20 in 10.0 mi NNE 6.9 mph - N/A   Clear
9:15 PM 51.8 °F - 10.4 °F 19% 30.21 in 10.0 mi SW 3.5 mph - N/A   Clear
9:35 PM 51.8 °F - 8.6 °F 18% 30.21 in 10.0 mi NNW 5.8 mph - N/A   Clear
9:55 PM 50.0 °F - 12.2 °F 22% 30.22 in 10.0 mi NNW 8.1 mph - N/A   Clear
10:15 PM 50.0 °F - 10.4 °F 20% 30.22 in 10.0 mi North 4.6 mph - N/A   Clear
10:35 PM 46.4 °F - 12.2 °F 25% 30.23 in 10.0 mi Calm Calm - N/A   Clear
10:55 PM 46.4 °F - 12.2 °F 25% 30.23 in 10.0 mi Calm Calm - N/A   Clear
11:15 PM 42.8 °F - 10.4 °F 27% 30.24 in 10.0 mi Calm Calm - N/A   Clear
11:35 PM 44.6 °F - 12.2 °F 27% 30.24 in 10.0 mi Calm Calm - N/A   Clear
11:55 PM 37.4 °F 34.9 °F 12.2 °F 36% 30.24 in 10.0 mi ENE 3.5 mph - N/A   Clear